sensor_id;sensor_type;location;lat;lon;timestamp;P1;durP1;ratioP1;P2;durP2;ratioP2
4885;SDS011;2457;51.788;6.136;2023-02-17T00:01:53;13.50;;;6.50;;
4885;SDS011;2457;51.788;6.136;2023-02-17T00:04:21;13.57;;;7.33;;
4885;SDS011;2457;51.788;6.136;2023-02-17T00:06:48;12.60;;;7.20;;
4885;SDS011;2457;51.788;6.136;2023-02-17T00:09:15;9.80;;;6.77;;
4885;SDS011;2457;51.788;6.136;2023-02-17T00:11:42;12.77;;;7.50;;
4885;SDS011;2457;51.788;6.136;2023-02-17T00:14:13;11.33;;;7.07;;
4885;SDS011;2457;51.788;6.136;2023-02-17T00:16:40;12.37;;;7.90;;
4885;SDS011;2457;51.788;6.136;2023-02-17T00:19:08;18.30;;;7.80;;
4885;SDS011;2457;51.788;6.136;2023-02-17T00:21:55;13.17;;;7.50;;
4885;SDS011;2457;51.788;6.136;2023-02-17T00:24:21;8.83;;;6.40;;
4885;SDS011;2457;51.788;6.136;2023-02-17T00:26:48;14.80;;;8.20;;
4885;SDS011;2457;51.788;6.136;2023-02-17T00:29:16;12.43;;;7.07;;
4885;SDS011;2457;51.788;6.136;2023-02-17T00:31:44;10.33;;;6.53;;
4885;SDS011;2457;51.788;6.136;2023-02-17T00:34:11;11.23;;;7.13;;
4885;SDS011;2457;51.788;6.136;2023-02-17T00:36:39;12.37;;;6.63;;
4885;SDS011;2457;51.788;6.136;2023-02-17T00:39:06;9.73;;;6.40;;
4885;SDS011;2457;51.788;6.136;2023-02-17T00:41:33;11.53;;;7.10;;
4885;SDS011;2457;51.788;6.136;2023-02-17T00:44:01;12.97;;;7.00;;
4885;SDS011;2457;51.788;6.136;2023-02-17T00:46:28;12.37;;;6.33;;
4885;SDS011;2457;51.788;6.136;2023-02-17T00:48:55;9.87;;;6.77;;
4885;SDS011;2457;51.788;6.136;2023-02-17T00:51:23;11.00;;;7.13;;
4885;SDS011;2457;51.788;6.136;2023-02-17T00:53:51;10.47;;;7.10;;
4885;SDS011;2457;51.788;6.136;2023-02-17T00:56:18;10.43;;;6.80;;
4885;SDS011;2457;51.788;6.136;2023-02-17T00:58:45;11.43;;;6.93;;
4885;SDS011;2457;51.788;6.136;2023-02-17T01:01:13;9.87;;;6.30;;
4885;SDS011;2457;51.788;6.136;2023-02-17T01:03:40;11.00;;;6.43;;
4885;SDS011;2457;51.788;6.136;2023-02-17T01:06:09;10.50;;;6.10;;
4885;SDS011;2457;51.788;6.136;2023-02-17T01:08:37;9.20;;;5.90;;
4885;SDS011;2457;51.788;6.136;2023-02-17T01:11:05;11.30;;;6.37;;
4885;SDS011;2457;51.788;6.136;2023-02-17T01:13:32;9.50;;;5.37;;
4885;SDS011;2457;51.788;6.136;2023-02-17T01:15:59;10.43;;;6.33;;
4885;SDS011;2457;51.788;6.136;2023-02-17T01:18:26;8.80;;;6.03;;
4885;SDS011;2457;51.788;6.136;2023-02-17T01:20:54;8.77;;;5.80;;
4885;SDS011;2457;51.788;6.136;2023-02-17T01:23:21;9.63;;;6.23;;
4885;SDS011;2457;51.788;6.136;2023-02-17T01:25:48;8.90;;;5.47;;
4885;SDS011;2457;51.788;6.136;2023-02-17T01:28:18;8.80;;;5.83;;
4885;SDS011;2457;51.788;6.136;2023-02-17T01:30:44;10.73;;;5.77;;
4885;SDS011;2457;51.788;6.136;2023-02-17T01:33:12;9.00;;;5.40;;
4885;SDS011;2457;51.788;6.136;2023-02-17T01:35:39;10.17;;;6.30;;
4885;SDS011;2457;51.788;6.136;2023-02-17T01:38:06;9.90;;;6.43;;
4885;SDS011;2457;51.788;6.136;2023-02-17T01:40:34;9.90;;;6.00;;
4885;SDS011;2457;51.788;6.136;2023-02-17T01:43:01;10.53;;;6.40;;
4885;SDS011;2457;51.788;6.136;2023-02-17T01:45:30;12.03;;;7.03;;
4885;SDS011;2457;51.788;6.136;2023-02-17T01:48:17;11.93;;;7.00;;
4885;SDS011;2457;51.788;6.136;2023-02-17T01:50:34;11.90;;;6.83;;
4885;SDS011;2457;51.788;6.136;2023-02-17T01:53:01;11.73;;;7.80;;
4885;SDS011;2457;51.788;6.136;2023-02-17T01:55:29;12.50;;;7.60;;
4885;SDS011;2457;51.788;6.136;2023-02-17T01:57:57;12.93;;;7.60;;
4885;SDS011;2457;51.788;6.136;2023-02-17T02:00:27;13.60;;;7.27;;
4885;SDS011;2457;51.788;6.136;2023-02-17T02:02:54;12.17;;;7.40;;
4885;SDS011;2457;51.788;6.136;2023-02-17T02:05:22;13.60;;;8.87;;
4885;SDS011;2457;51.788;6.136;2023-02-17T02:07:50;13.97;;;8.20;;
4885;SDS011;2457;51.788;6.136;2023-02-17T02:10:17;12.73;;;7.93;;
4885;SDS011;2457;51.788;6.136;2023-02-17T02:12:45;11.57;;;7.83;;
4885;SDS011;2457;51.788;6.136;2023-02-17T02:15:17;13.70;;;8.47;;
4885;SDS011;2457;51.788;6.136;2023-02-17T02:17:58;17.73;;;8.40;;
4885;SDS011;2457;51.788;6.136;2023-02-17T02:20:25;14.63;;;8.90;;
4885;SDS011;2457;51.788;6.136;2023-02-17T02:30:51;15.53;;;7.53;;
4885;SDS011;2457;51.788;6.136;2023-02-17T02:33:22;12.10;;;7.20;;
4885;SDS011;2457;51.788;6.136;2023-02-17T02:36:02;12.47;;;8.07;;
4885;SDS011;2457;51.788;6.136;2023-02-17T02:38:30;12.80;;;7.70;;
4885;SDS011;2457;51.788;6.136;2023-02-17T02:40:58;11.87;;;7.13;;
4885;SDS011;2457;51.788;6.136;2023-02-17T02:43:25;10.90;;;6.77;;
4885;SDS011;2457;51.788;6.136;2023-02-17T02:45:52;12.03;;;7.13;;
4885;SDS011;2457;51.788;6.136;2023-02-17T02:48:19;9.60;;;6.70;;
4885;SDS011;2457;51.788;6.136;2023-02-17T02:50:55;9.10;;;5.63;;
4885;SDS011;2457;51.788;6.136;2023-02-17T02:56:12;9.13;;;5.50;;
4885;SDS011;2457;51.788;6.136;2023-02-17T03:01:16;9.90;;;5.60;;
4885;SDS011;2457;51.788;6.136;2023-02-17T03:04:28;9.73;;;5.57;;
4885;SDS011;2457;51.788;6.136;2023-02-17T03:06:26;9.40;;;6.10;;
4885;SDS011;2457;51.788;6.136;2023-02-17T03:08:52;8.97;;;5.33;;
4885;SDS011;2457;51.788;6.136;2023-02-17T03:11:24;8.43;;;5.33;;
4885;SDS011;2457;51.788;6.136;2023-02-17T03:13:49;9.00;;;5.77;;
4885;SDS011;2457;51.788;6.136;2023-02-17T03:16:16;9.60;;;5.60;;
4885;SDS011;2457;51.788;6.136;2023-02-17T03:18:44;9.10;;;5.93;;
4885;SDS011;2457;51.788;6.136;2023-02-17T03:21:13;10.60;;;6.20;;
4885;SDS011;2457;51.788;6.136;2023-02-17T03:23:40;9.73;;;6.43;;
4885;SDS011;2457;51.788;6.136;2023-02-17T03:26:07;9.53;;;6.13;;
4885;SDS011;2457;51.788;6.136;2023-02-17T03:28:34;11.90;;;6.83;;
4885;SDS011;2457;51.788;6.136;2023-02-17T03:31:02;10.27;;;6.70;;
4885;SDS011;2457;51.788;6.136;2023-02-17T03:33:29;10.83;;;7.00;;
4885;SDS011;2457;51.788;6.136;2023-02-17T03:35:56;11.37;;;6.63;;
4885;SDS011;2457;51.788;6.136;2023-02-17T03:38:23;10.77;;;6.70;;
4885;SDS011;2457;51.788;6.136;2023-02-17T03:40:51;12.03;;;6.93;;
4885;SDS011;2457;51.788;6.136;2023-02-17T03:43:19;11.03;;;7.63;;
4885;SDS011;2457;51.788;6.136;2023-02-17T03:45:46;12.73;;;7.50;;
4885;SDS011;2457;51.788;6.136;2023-02-17T03:48:13;11.63;;;7.87;;
4885;SDS011;2457;51.788;6.136;2023-02-17T03:50:40;12.37;;;7.73;;
4885;SDS011;2457;51.788;6.136;2023-02-17T03:53:09;11.47;;;7.47;;
4885;SDS011;2457;51.788;6.136;2023-02-17T03:55:36;12.30;;;7.47;;
4885;SDS011;2457;51.788;6.136;2023-02-17T03:58:04;16.60;;;8.67;;
4885;SDS011;2457;51.788;6.136;2023-02-17T04:00:31;13.40;;;8.47;;
4885;SDS011;2457;51.788;6.136;2023-02-17T04:02:58;13.50;;;7.83;;
4885;SDS011;2457;51.788;6.136;2023-02-17T04:05:25;16.13;;;8.40;;
4885;SDS011;2457;51.788;6.136;2023-02-17T04:07:53;14.00;;;8.50;;
4885;SDS011;2457;51.788;6.136;2023-02-17T04:10:20;13.27;;;8.33;;
4885;SDS011;2457;51.788;6.136;2023-02-17T04:12:47;13.60;;;8.67;;
4885;SDS011;2457;51.788;6.136;2023-02-17T04:15:14;13.37;;;8.47;;
4885;SDS011;2457;51.788;6.136;2023-02-17T04:17:42;13.50;;;8.60;;
4885;SDS011;2457;51.788;6.136;2023-02-17T04:20:09;13.80;;;9.40;;
4885;SDS011;2457;51.788;6.136;2023-02-17T04:22:36;15.60;;;9.40;;
4885;SDS011;2457;51.788;6.136;2023-02-17T04:25:04;16.17;;;8.87;;
4885;SDS011;2457;51.788;6.136;2023-02-17T04:27:31;14.20;;;8.40;;
4885;SDS011;2457;51.788;6.136;2023-02-17T04:29:58;14.47;;;8.50;;
4885;SDS011;2457;51.788;6.136;2023-02-17T04:32:25;13.80;;;7.70;;
4885;SDS011;2457;51.788;6.136;2023-02-17T04:34:53;11.00;;;7.10;;
4885;SDS011;2457;51.788;6.136;2023-02-17T04:37:20;15.53;;;8.10;;
4885;SDS011;2457;51.788;6.136;2023-02-17T04:39:47;13.37;;;7.63;;
4885;SDS011;2457;51.788;6.136;2023-02-17T04:42:15;12.40;;;7.20;;
4885;SDS011;2457;51.788;6.136;2023-02-17T04:44:42;12.10;;;7.70;;
4885;SDS011;2457;51.788;6.136;2023-02-17T04:47:09;10.70;;;7.07;;
4885;SDS011;2457;51.788;6.136;2023-02-17T04:49:36;10.00;;;6.57;;
4885;SDS011;2457;51.788;6.136;2023-02-17T04:52:04;12.23;;;7.00;;
4885;SDS011;2457;51.788;6.136;2023-02-17T04:54:31;9.63;;;5.80;;
4885;SDS011;2457;51.788;6.136;2023-02-17T04:56:58;10.90;;;6.00;;
4885;SDS011;2457;51.788;6.136;2023-02-17T04:59:25;9.50;;;6.20;;
4885;SDS011;2457;51.788;6.136;2023-02-17T05:01:53;12.10;;;6.00;;
4885;SDS011;2457;51.788;6.136;2023-02-17T05:04:20;9.47;;;5.47;;
4885;SDS011;2457;51.788;6.136;2023-02-17T05:06:47;10.10;;;5.73;;
4885;SDS011;2457;51.788;6.136;2023-02-17T05:09:14;9.23;;;5.73;;
4885;SDS011;2457;51.788;6.136;2023-02-17T05:11:42;10.37;;;6.20;;
4885;SDS011;2457;51.788;6.136;2023-02-17T05:14:09;10.30;;;5.90;;
4885;SDS011;2457;51.788;6.136;2023-02-17T05:16:36;9.13;;;5.47;;
4885;SDS011;2457;51.788;6.136;2023-02-17T05:19:04;10.50;;;5.00;;
4885;SDS011;2457;51.788;6.136;2023-02-17T05:21:31;11.17;;;5.57;;
4885;SDS011;2457;51.788;6.136;2023-02-17T05:23:58;9.40;;;5.60;;
4885;SDS011;2457;51.788;6.136;2023-02-17T05:26:25;8.40;;;4.27;;
4885;SDS011;2457;51.788;6.136;2023-02-17T05:28:53;8.73;;;4.40;;
4885;SDS011;2457;51.788;6.136;2023-02-17T05:31:20;8.90;;;5.00;;
4885;SDS011;2457;51.788;6.136;2023-02-17T05:33:47;8.83;;;4.97;;
4885;SDS011;2457;51.788;6.136;2023-02-17T05:36:14;8.40;;;4.50;;
4885;SDS011;2457;51.788;6.136;2023-02-17T05:38:42;9.30;;;4.90;;
4885;SDS011;2457;51.788;6.136;2023-02-17T05:41:11;9.30;;;5.73;;
4885;SDS011;2457;51.788;6.136;2023-02-17T05:43:38;10.63;;;5.50;;
4885;SDS011;2457;51.788;6.136;2023-02-17T05:46:05;8.63;;;4.30;;
4885;SDS011;2457;51.788;6.136;2023-02-17T05:48:33;7.57;;;4.40;;
4885;SDS011;2457;51.788;6.136;2023-02-17T05:51:00;8.70;;;4.67;;
4885;SDS011;2457;51.788;6.136;2023-02-17T05:53:27;6.93;;;4.30;;
4885;SDS011;2457;51.788;6.136;2023-02-17T05:55:55;8.50;;;4.30;;
4885;SDS011;2457;51.788;6.136;2023-02-17T05:58:22;8.70;;;4.90;;
4885;SDS011;2457;51.788;6.136;2023-02-17T06:00:49;8.80;;;5.00;;
4885;SDS011;2457;51.788;6.136;2023-02-17T06:03:16;7.67;;;4.30;;
4885;SDS011;2457;51.788;6.136;2023-02-17T06:05:44;8.60;;;4.40;;
4885;SDS011;2457;51.788;6.136;2023-02-17T06:08:11;11.93;;;4.60;;
4885;SDS011;2457;51.788;6.136;2023-02-17T06:10:40;8.33;;;3.97;;
4885;SDS011;2457;51.788;6.136;2023-02-17T06:13:07;8.30;;;4.03;;
4885;SDS011;2457;51.788;6.136;2023-02-17T06:15:35;9.90;;;4.80;;
4885;SDS011;2457;51.788;6.136;2023-02-17T06:18:02;8.43;;;4.30;;
4885;SDS011;2457;51.788;6.136;2023-02-17T06:20:29;8.20;;;4.50;;
4885;SDS011;2457;51.788;6.136;2023-02-17T06:22:57;6.50;;;3.83;;
4885;SDS011;2457;51.788;6.136;2023-02-17T06:25:24;8.27;;;4.00;;
4885;SDS011;2457;51.788;6.136;2023-02-17T06:27:51;7.50;;;3.60;;
4885;SDS011;2457;51.788;6.136;2023-02-17T06:30:19;8.90;;;4.10;;
4885;SDS011;2457;51.788;6.136;2023-02-17T06:32:46;8.00;;;4.10;;
4885;SDS011;2457;51.788;6.136;2023-02-17T06:35:14;6.13;;;3.27;;
4885;SDS011;2457;51.788;6.136;2023-02-17T06:37:41;7.20;;;3.57;;
4885;SDS011;2457;51.788;6.136;2023-02-17T06:40:09;6.73;;;3.70;;
4885;SDS011;2457;51.788;6.136;2023-02-17T06:42:36;7.70;;;3.83;;
4885;SDS011;2457;51.788;6.136;2023-02-17T06:45:04;6.93;;;4.60;;
4885;SDS011;2457;51.788;6.136;2023-02-17T06:47:31;6.63;;;3.90;;
4885;SDS011;2457;51.788;6.136;2023-02-17T06:49:59;8.87;;;3.63;;
4885;SDS011;2457;51.788;6.136;2023-02-17T06:52:26;7.30;;;4.17;;
4885;SDS011;2457;51.788;6.136;2023-02-17T06:54:54;9.27;;;4.87;;
4885;SDS011;2457;51.788;6.136;2023-02-17T06:57:21;7.43;;;4.67;;
4885;SDS011;2457;51.788;6.136;2023-02-17T06:59:48;7.50;;;4.50;;
4885;SDS011;2457;51.788;6.136;2023-02-17T07:02:15;11.17;;;5.70;;
4885;SDS011;2457;51.788;6.136;2023-02-17T07:04:43;10.03;;;5.13;;
4885;SDS011;2457;51.788;6.136;2023-02-17T07:07:10;9.77;;;5.57;;
4885;SDS011;2457;51.788;6.136;2023-02-17T07:09:37;8.60;;;4.30;;
4885;SDS011;2457;51.788;6.136;2023-02-17T07:12:05;9.90;;;5.23;;
4885;SDS011;2457;51.788;6.136;2023-02-17T07:14:33;12.03;;;6.60;;
4885;SDS011;2457;51.788;6.136;2023-02-17T07:17:00;8.70;;;4.67;;
4885;SDS011;2457;51.788;6.136;2023-02-17T07:19:27;16.20;;;5.40;;
4885;SDS011;2457;51.788;6.136;2023-02-17T07:21:55;10.33;;;5.30;;
4885;SDS011;2457;51.788;6.136;2023-02-17T07:24:22;9.00;;;4.50;;
4885;SDS011;2457;51.788;6.136;2023-02-17T07:26:49;8.87;;;5.17;;
4885;SDS011;2457;51.788;6.136;2023-02-17T07:29:18;11.40;;;5.90;;
4885;SDS011;2457;51.788;6.136;2023-02-17T07:31:46;9.53;;;5.17;;
4885;SDS011;2457;51.788;6.136;2023-02-17T07:34:13;9.67;;;5.17;;
4885;SDS011;2457;51.788;6.136;2023-02-17T07:36:40;8.70;;;5.30;;
4885;SDS011;2457;51.788;6.136;2023-02-17T07:39:09;12.30;;;6.50;;
4885;SDS011;2457;51.788;6.136;2023-02-17T07:41:36;12.17;;;5.13;;
4885;SDS011;2457;51.788;6.136;2023-02-17T07:44:03;9.47;;;5.17;;
4885;SDS011;2457;51.788;6.136;2023-02-17T07:46:31;9.87;;;5.33;;
4885;SDS011;2457;51.788;6.136;2023-02-17T07:48:58;11.07;;;5.80;;
4885;SDS011;2457;51.788;6.136;2023-02-17T07:51:25;8.60;;;5.07;;
4885;SDS011;2457;51.788;6.136;2023-02-17T07:53:52;10.63;;;5.60;;
4885;SDS011;2457;51.788;6.136;2023-02-17T07:56:20;8.90;;;5.37;;
4885;SDS011;2457;51.788;6.136;2023-02-17T07:58:48;9.33;;;4.80;;
4885;SDS011;2457;51.788;6.136;2023-02-17T08:01:20;8.40;;;4.87;;
4885;SDS011;2457;51.788;6.136;2023-02-17T08:03:45;11.10;;;6.37;;
4885;SDS011;2457;51.788;6.136;2023-02-17T08:06:13;9.23;;;5.33;;
4885;SDS011;2457;51.788;6.136;2023-02-17T08:08:41;9.30;;;5.10;;
4885;SDS011;2457;51.788;6.136;2023-02-17T08:11:27;14.37;;;5.90;;
4885;SDS011;2457;51.788;6.136;2023-02-17T08:14:12;9.60;;;5.70;;
4885;SDS011;2457;51.788;6.136;2023-02-17T08:16:40;10.30;;;5.97;;
4885;SDS011;2457;51.788;6.136;2023-02-17T08:19:07;8.03;;;5.03;;
4885;SDS011;2457;51.788;6.136;2023-02-17T08:21:34;9.53;;;5.90;;
4885;SDS011;2457;51.788;6.136;2023-02-17T08:24:01;12.57;;;5.40;;
4885;SDS011;2457;51.788;6.136;2023-02-17T08:26:29;9.97;;;5.20;;
4885;SDS011;2457;51.788;6.136;2023-02-17T08:28:56;10.87;;;6.00;;
4885;SDS011;2457;51.788;6.136;2023-02-17T08:31:25;10.37;;;6.00;;
4885;SDS011;2457;51.788;6.136;2023-02-17T08:33:53;8.10;;;4.80;;
4885;SDS011;2457;51.788;6.136;2023-02-17T08:36:20;10.13;;;5.27;;
4885;SDS011;2457;51.788;6.136;2023-02-17T08:38:51;9.17;;;5.97;;
4885;SDS011;2457;51.788;6.136;2023-02-17T08:41:22;11.07;;;5.50;;
4885;SDS011;2457;51.788;6.136;2023-02-17T08:43:51;10.83;;;6.00;;
4885;SDS011;2457;51.788;6.136;2023-02-17T08:46:18;12.17;;;5.90;;
4885;SDS011;2457;51.788;6.136;2023-02-17T08:48:46;12.47;;;6.10;;
4885;SDS011;2457;51.788;6.136;2023-02-17T08:51:14;8.70;;;4.27;;
4885;SDS011;2457;51.788;6.136;2023-02-17T08:53:42;8.30;;;4.63;;
4885;SDS011;2457;51.788;6.136;2023-02-17T08:56:09;10.27;;;5.20;;
4885;SDS011;2457;51.788;6.136;2023-02-17T08:58:36;9.03;;;5.57;;
4885;SDS011;2457;51.788;6.136;2023-02-17T09:01:04;10.57;;;5.73;;
4885;SDS011;2457;51.788;6.136;2023-02-17T09:03:34;11.20;;;5.17;;
4885;SDS011;2457;51.788;6.136;2023-02-17T09:06:03;10.07;;;5.60;;
4885;SDS011;2457;51.788;6.136;2023-02-17T09:08:30;11.20;;;5.47;;
4885;SDS011;2457;51.788;6.136;2023-02-17T09:10:58;9.70;;;5.53;;
4885;SDS011;2457;51.788;6.136;2023-02-17T09:13:25;10.67;;;5.80;;
4885;SDS011;2457;51.788;6.136;2023-02-17T09:15:53;10.43;;;5.57;;
4885;SDS011;2457;51.788;6.136;2023-02-17T09:18:20;9.87;;;5.40;;
4885;SDS011;2457;51.788;6.136;2023-02-17T09:20:47;9.90;;;5.03;;
4885;SDS011;2457;51.788;6.136;2023-02-17T09:23:15;10.20;;;5.80;;
4885;SDS011;2457;51.788;6.136;2023-02-17T09:25:42;9.00;;;5.73;;
4885;SDS011;2457;51.788;6.136;2023-02-17T09:28:10;9.90;;;6.00;;
4885;SDS011;2457;51.788;6.136;2023-02-17T09:30:39;12.80;;;6.77;;
4885;SDS011;2457;51.788;6.136;2023-02-17T09:33:06;11.30;;;6.20;;
4885;SDS011;2457;51.788;6.136;2023-02-17T09:35:34;9.80;;;6.00;;
4885;SDS011;2457;51.788;6.136;2023-02-17T09:38:02;9.77;;;5.43;;
4885;SDS011;2457;51.788;6.136;2023-02-17T09:40:45;9.33;;;6.67;;
4885;SDS011;2457;51.788;6.136;2023-02-17T09:43:15;10.17;;;6.27;;
4885;SDS011;2457;51.788;6.136;2023-02-17T09:45:44;9.63;;;5.70;;
4885;SDS011;2457;51.788;6.136;2023-02-17T09:48:12;9.67;;;5.37;;
4885;SDS011;2457;51.788;6.136;2023-02-17T09:50:41;9.80;;;5.33;;
4885;SDS011;2457;51.788;6.136;2023-02-17T09:55:51;8.77;;;5.60;;
4885;SDS011;2457;51.788;6.136;2023-02-17T09:58:25;16.47;;;6.90;;
4885;SDS011;2457;51.788;6.136;2023-02-17T10:00:55;10.43;;;6.30;;
4885;SDS011;2457;51.788;6.136;2023-02-17T10:03:35;9.47;;;6.50;;
4885;SDS011;2457;51.788;6.136;2023-02-17T10:08:40;10.10;;;5.50;;
4885;SDS011;2457;51.788;6.136;2023-02-17T10:11:13;8.77;;;5.57;;
4885;SDS011;2457;51.788;6.136;2023-02-17T10:13:38;10.40;;;5.17;;
4885;SDS011;2457;51.788;6.136;2023-02-17T10:16:08;8.90;;;5.27;;
4885;SDS011;2457;51.788;6.136;2023-02-17T10:18:40;8.80;;;5.63;;
4885;SDS011;2457;51.788;6.136;2023-02-17T10:21:06;8.07;;;5.13;;
4885;SDS011;2457;51.788;6.136;2023-02-17T10:23:33;8.77;;;5.17;;
4885;SDS011;2457;51.788;6.136;2023-02-17T10:33:53;8.10;;;4.90;;
4885;SDS011;2457;51.788;6.136;2023-02-17T10:38:50;9.37;;;5.80;;
4885;SDS011;2457;51.788;6.136;2023-02-17T10:41:26;8.40;;;5.30;;
4885;SDS011;2457;51.788;6.136;2023-02-17T10:43:52;7.87;;;5.43;;
4885;SDS011;2457;51.788;6.136;2023-02-17T10:46:23;8.80;;;5.53;;
4885;SDS011;2457;51.788;6.136;2023-02-17T10:48:49;10.10;;;5.20;;
4885;SDS011;2457;51.788;6.136;2023-02-17T10:51:19;8.83;;;4.97;;
4885;SDS011;2457;51.788;6.136;2023-02-17T10:53:47;7.40;;;4.90;;
4885;SDS011;2457;51.788;6.136;2023-02-17T10:58:57;9.23;;;5.60;;
4885;SDS011;2457;51.788;6.136;2023-02-17T11:01:24;7.83;;;4.97;;
4885;SDS011;2457;51.788;6.136;2023-02-17T11:04:00;10.93;;;5.63;;
4885;SDS011;2457;51.788;6.136;2023-02-17T11:06:28;8.80;;;4.70;;
4885;SDS011;2457;51.788;6.136;2023-02-17T11:08:59;7.30;;;4.80;;
4885;SDS011;2457;51.788;6.136;2023-02-17T11:11:28;8.50;;;5.10;;
4885;SDS011;2457;51.788;6.136;2023-02-17T11:16:42;7.33;;;4.13;;
4885;SDS011;2457;51.788;6.136;2023-02-17T11:19:23;6.67;;;3.80;;
4885;SDS011;2457;51.788;6.136;2023-02-17T11:21:50;6.50;;;3.67;;
4885;SDS011;2457;51.788;6.136;2023-02-17T11:24:18;9.10;;;4.13;;
4885;SDS011;2457;51.788;6.136;2023-02-17T11:26:57;6.50;;;4.00;;
4885;SDS011;2457;51.788;6.136;2023-02-17T11:29:23;7.03;;;4.03;;
4885;SDS011;2457;51.788;6.136;2023-02-17T11:31:54;6.13;;;4.10;;
4885;SDS011;2457;51.788;6.136;2023-02-17T11:34:23;6.13;;;3.80;;
4885;SDS011;2457;51.788;6.136;2023-02-17T11:36:59;6.27;;;4.20;;
4885;SDS011;2457;51.788;6.136;2023-02-17T11:39:26;6.50;;;4.10;;
4885;SDS011;2457;51.788;6.136;2023-02-17T11:41:54;6.67;;;4.07;;
4885;SDS011;2457;51.788;6.136;2023-02-17T11:44:27;6.10;;;3.70;;
4885;SDS011;2457;51.788;6.136;2023-02-17T11:49:58;9.00;;;4.50;;
4885;SDS011;2457;51.788;6.136;2023-02-17T11:52:32;6.97;;;4.40;;
4885;SDS011;2457;51.788;6.136;2023-02-17T11:55:06;7.30;;;4.47;;
4885;SDS011;2457;51.788;6.136;2023-02-17T12:05:23;6.23;;;4.00;;
4885;SDS011;2457;51.788;6.136;2023-02-17T12:07:58;5.93;;;3.97;;
4885;SDS011;2457;51.788;6.136;2023-02-17T12:15:59;5.83;;;3.70;;
4885;SDS011;2457;51.788;6.136;2023-02-17T12:18:32;6.60;;;4.10;;
4885;SDS011;2457;51.788;6.136;2023-02-17T12:23:55;7.40;;;3.60;;
4885;SDS011;2457;51.788;6.136;2023-02-17T12:34:07;7.30;;;3.80;;
4885;SDS011;2457;51.788;6.136;2023-02-17T12:36:33;5.00;;;3.00;;
4885;SDS011;2457;51.788;6.136;2023-02-17T12:39:05;11.00;;;3.37;;
4885;SDS011;2457;51.788;6.136;2023-02-17T12:41:33;6.03;;;3.40;;
4885;SDS011;2457;51.788;6.136;2023-02-17T12:44:01;5.87;;;3.27;;
4885;SDS011;2457;51.788;6.136;2023-02-17T12:46:40;5.60;;;3.17;;
4885;SDS011;2457;51.788;6.136;2023-02-17T12:49:05;6.87;;;3.80;;
4885;SDS011;2457;51.788;6.136;2023-02-17T12:59:26;6.03;;;3.60;;
4885;SDS011;2457;51.788;6.136;2023-02-17T13:02:04;5.60;;;2.80;;
4885;SDS011;2457;51.788;6.136;2023-02-17T13:04:32;6.67;;;3.40;;
4885;SDS011;2457;51.788;6.136;2023-02-17T13:09:35;5.57;;;3.03;;
4885;SDS011;2457;51.788;6.136;2023-02-17T13:14:42;5.30;;;2.87;;
4885;SDS011;2457;51.788;6.136;2023-02-17T13:17:25;5.37;;;2.77;;
4885;SDS011;2457;51.788;6.136;2023-02-17T13:20:28;6.90;;;2.90;;
4885;SDS011;2457;51.788;6.136;2023-02-17T13:22:27;7.53;;;2.93;;
4885;SDS011;2457;51.788;6.136;2023-02-17T13:24:54;6.80;;;3.33;;
4885;SDS011;2457;51.788;6.136;2023-02-17T13:27:29;5.87;;;2.50;;
4885;SDS011;2457;51.788;6.136;2023-02-17T13:30:04;4.90;;;2.63;;
4885;SDS011;2457;51.788;6.136;2023-02-17T13:32:32;5.33;;;2.97;;
4885;SDS011;2457;51.788;6.136;2023-02-17T13:35:16;6.53;;;2.80;;
4885;SDS011;2457;51.788;6.136;2023-02-17T13:42:46;6.60;;;2.70;;
4885;SDS011;2457;51.788;6.136;2023-02-17T13:47:42;5.70;;;2.10;;
4885;SDS011;2457;51.788;6.136;2023-02-17T13:52:56;6.77;;;2.43;;
4885;SDS011;2457;51.788;6.136;2023-02-17T13:55:23;6.73;;;2.30;;
4885;SDS011;2457;51.788;6.136;2023-02-17T13:57:56;4.90;;;2.60;;
4885;SDS011;2457;51.788;6.136;2023-02-17T14:00:21;6.67;;;2.70;;
4885;SDS011;2457;51.788;6.136;2023-02-17T14:02:52;7.10;;;2.67;;
4885;SDS011;2457;51.788;6.136;2023-02-17T14:05:22;6.30;;;2.40;;
4885;SDS011;2457;51.788;6.136;2023-02-17T14:07:49;10.87;;;2.50;;
4885;SDS011;2457;51.788;6.136;2023-02-17T14:10:20;6.87;;;2.63;;
4885;SDS011;2457;51.788;6.136;2023-02-17T14:12:48;6.13;;;2.80;;
4885;SDS011;2457;51.788;6.136;2023-02-17T14:15:21;6.70;;;2.43;;
4885;SDS011;2457;51.788;6.136;2023-02-17T14:17:44;5.27;;;2.43;;
4885;SDS011;2457;51.788;6.136;2023-02-17T14:20:35;6.43;;;2.47;;
4885;SDS011;2457;51.788;6.136;2023-02-17T14:23:06;6.87;;;2.47;;
4885;SDS011;2457;51.788;6.136;2023-02-17T14:25:31;5.40;;;2.70;;
4885;SDS011;2457;51.788;6.136;2023-02-17T14:27:59;6.53;;;2.90;;
4885;SDS011;2457;51.788;6.136;2023-02-17T14:33:17;6.57;;;2.60;;
4885;SDS011;2457;51.788;6.136;2023-02-17T14:35:36;4.40;;;2.10;;
4885;SDS011;2457;51.788;6.136;2023-02-17T14:38:24;5.63;;;2.50;;
4885;SDS011;2457;51.788;6.136;2023-02-17T14:40:48;6.13;;;2.33;;
4885;SDS011;2457;51.788;6.136;2023-02-17T14:43:15;7.87;;;2.57;;
4885;SDS011;2457;51.788;6.136;2023-02-17T14:45:43;5.80;;;2.40;;
4885;SDS011;2457;51.788;6.136;2023-02-17T14:48:10;6.33;;;2.70;;
4885;SDS011;2457;51.788;6.136;2023-02-17T14:50:37;7.37;;;2.50;;
4885;SDS011;2457;51.788;6.136;2023-02-17T14:53:26;9.73;;;2.67;;
4885;SDS011;2457;51.788;6.136;2023-02-17T14:56:01;6.87;;;2.77;;
4885;SDS011;2457;51.788;6.136;2023-02-17T14:58:29;7.77;;;2.17;;
4885;SDS011;2457;51.788;6.136;2023-02-17T15:00:57;8.80;;;2.37;;
4885;SDS011;2457;51.788;6.136;2023-02-17T15:03:24;5.03;;;2.03;;
4885;SDS011;2457;51.788;6.136;2023-02-17T15:05:52;6.63;;;2.40;;
4885;SDS011;2457;51.788;6.136;2023-02-17T15:08:21;6.73;;;2.10;;
4885;SDS011;2457;51.788;6.136;2023-02-17T15:10:49;4.93;;;2.07;;
4885;SDS011;2457;51.788;6.136;2023-02-17T15:13:18;8.13;;;2.10;;
4885;SDS011;2457;51.788;6.136;2023-02-17T15:15:46;5.30;;;2.40;;
4885;SDS011;2457;51.788;6.136;2023-02-17T15:18:15;5.00;;;2.00;;
4885;SDS011;2457;51.788;6.136;2023-02-17T15:20:43;5.00;;;1.77;;
4885;SDS011;2457;51.788;6.136;2023-02-17T15:23:12;4.57;;;2.00;;
4885;SDS011;2457;51.788;6.136;2023-02-17T15:25:40;5.20;;;2.07;;
4885;SDS011;2457;51.788;6.136;2023-02-17T15:28:10;4.60;;;2.13;;
4885;SDS011;2457;51.788;6.136;2023-02-17T15:30:36;8.50;;;2.27;;
4885;SDS011;2457;51.788;6.136;2023-02-17T15:33:04;6.27;;;2.30;;
4885;SDS011;2457;51.788;6.136;2023-02-17T15:35:32;5.77;;;1.90;;
4885;SDS011;2457;51.788;6.136;2023-02-17T15:37:59;5.20;;;2.20;;
4885;SDS011;2457;51.788;6.136;2023-02-17T15:40:27;5.77;;;1.90;;
4885;SDS011;2457;51.788;6.136;2023-02-17T15:42:55;6.87;;;2.00;;
4885;SDS011;2457;51.788;6.136;2023-02-17T15:45:23;4.90;;;1.90;;
4885;SDS011;2457;51.788;6.136;2023-02-17T15:47:51;4.80;;;1.70;;
4885;SDS011;2457;51.788;6.136;2023-02-17T15:50:20;7.50;;;2.20;;
4885;SDS011;2457;51.788;6.136;2023-02-17T15:52:48;7.63;;;2.50;;
4885;SDS011;2457;51.788;6.136;2023-02-17T15:55:16;5.10;;;1.77;;
4885;SDS011;2457;51.788;6.136;2023-02-17T15:57:46;7.40;;;2.30;;
4885;SDS011;2457;51.788;6.136;2023-02-17T16:00:23;5.30;;;2.07;;
4885;SDS011;2457;51.788;6.136;2023-02-17T16:02:51;6.80;;;2.07;;
4885;SDS011;2457;51.788;6.136;2023-02-17T16:05:20;4.70;;;1.97;;
4885;SDS011;2457;51.788;6.136;2023-02-17T16:07:48;8.00;;;2.40;;
4885;SDS011;2457;51.788;6.136;2023-02-17T16:10:16;5.27;;;2.60;;
4885;SDS011;2457;51.788;6.136;2023-02-17T16:12:44;7.00;;;2.33;;
4885;SDS011;2457;51.788;6.136;2023-02-17T16:15:13;4.63;;;2.00;;
4885;SDS011;2457;51.788;6.136;2023-02-17T16:17:41;5.70;;;2.30;;
4885;SDS011;2457;51.788;6.136;2023-02-17T16:20:21;10.20;;;2.13;;
4885;SDS011;2457;51.788;6.136;2023-02-17T16:22:48;6.57;;;2.03;;
4885;SDS011;2457;51.788;6.136;2023-02-17T16:25:16;4.07;;;1.80;;
4885;SDS011;2457;51.788;6.136;2023-02-17T16:27:44;5.97;;;2.23;;
4885;SDS011;2457;51.788;6.136;2023-02-17T16:30:22;5.93;;;1.90;;
4885;SDS011;2457;51.788;6.136;2023-02-17T16:32:50;7.73;;;2.17;;
4885;SDS011;2457;51.788;6.136;2023-02-17T16:35:21;5.30;;;2.40;;
4885;SDS011;2457;51.788;6.136;2023-02-17T16:37:56;5.90;;;2.20;;
4885;SDS011;2457;51.788;6.136;2023-02-17T16:40:24;5.00;;;2.07;;
4885;SDS011;2457;51.788;6.136;2023-02-17T16:42:52;5.10;;;2.10;;
4885;SDS011;2457;51.788;6.136;2023-02-17T16:45:26;6.00;;;2.37;;
4885;SDS011;2457;51.788;6.136;2023-02-17T16:47:49;6.80;;;2.50;;